createdAt,value
2023-03-18T00:01:04.096Z,11.20
2023-03-18T00:03:32.465Z,11.20
2023-03-18T00:06:08.397Z,11.20
2023-03-18T00:08:37.111Z,11.20
2023-03-18T00:11:06.155Z,11.30
2023-03-18T00:13:34.901Z,11.30
2023-03-18T00:16:05.330Z,11.40
2023-03-18T00:18:34.351Z,11.40
2023-03-18T00:21:03.770Z,11.40
2023-03-18T00:23:32.851Z,11.50
2023-03-18T00:26:02.046Z,11.50
2023-03-18T00:28:31.367Z,11.60
2023-03-18T00:31:08.851Z,11.60
2023-03-18T00:33:38.076Z,11.60
2023-03-18T00:36:07.342Z,11.70
2023-03-18T00:38:35.657Z,11.70
2023-03-18T00:41:11.400Z,11.70
2023-03-18T00:43:46.128Z,11.70
2023-03-18T00:46:17.819Z,11.70
2023-03-18T00:48:46.845Z,11.80
2023-03-18T00:51:17.100Z,11.80
2023-03-18T00:53:46.409Z,11.80
2023-03-18T00:56:15.235Z,11.80
2023-03-18T00:58:43.351Z,11.90
2023-03-18T01:01:12.492Z,11.90
2023-03-18T01:03:43.308Z,11.90
2023-03-18T01:06:13.238Z,11.90
2023-03-18T01:08:42.390Z,11.90
2023-03-18T01:11:11.242Z,11.90
2023-03-18T01:13:40.419Z,11.90
2023-03-18T01:16:09.495Z,11.90
2023-03-18T01:18:37.851Z,11.90
2023-03-18T01:21:07.124Z,11.90
2023-03-18T01:23:35.597Z,11.90
2023-03-18T01:26:04.595Z,11.90
2023-03-18T01:28:32.775Z,11.90
2023-03-18T01:31:00.521Z,11.90
2023-03-18T01:33:29.771Z,11.90
2023-03-18T01:36:00.341Z,12.00
2023-03-18T01:38:30.977Z,11.90
2023-03-18T01:40:59.495Z,11.90
2023-03-18T01:43:29.465Z,12.00
2023-03-18T01:45:59.426Z,12.00
2023-03-18T01:48:30.546Z,12.00
2023-03-18T01:51:04.304Z,12.00
2023-03-18T01:53:39.643Z,12.00
2023-03-18T01:56:08.995Z,12.00
2023-03-18T01:58:41.268Z,12.00
2023-03-18T02:01:19.265Z,12.00
2023-03-18T02:03:48.787Z,12.00
2023-03-18T02:06:16.609Z,12.00
2023-03-18T02:08:45.939Z,12.00
2023-03-18T02:11:14.273Z,12.00
2023-03-18T02:13:44.159Z,12.00
2023-03-18T02:16:17.106Z,12.00
2023-03-18T02:18:50.399Z,12.00
2023-03-18T02:21:32.107Z,12.00
2023-03-18T02:24:09.545Z,11.90
2023-03-18T02:26:43.999Z,11.90
2023-03-18T02:29:15.002Z,11.90
2023-03-18T02:31:44.041Z,11.90
2023-03-18T02:34:12.619Z,11.80
2023-03-18T02:36:41.336Z,11.80
2023-03-18T02:39:13.286Z,11.80
2023-03-18T02:41:41.649Z,11.80
2023-03-18T02:44:09.821Z,11.80
2023-03-18T02:46:49.361Z,11.80
2023-03-18T02:49:20.311Z,11.70
2023-03-18T02:51:49.255Z,11.70
2023-03-18T02:54:21.083Z,11.70
2023-03-18T02:56:49.142Z,11.70
2023-03-18T02:59:17.655Z,11.70
2023-03-18T03:01:49.407Z,11.60
2023-03-18T03:04:18.649Z,11.60
2023-03-18T03:06:47.159Z,11.60
2023-03-18T03:09:16.774Z,11.60
2023-03-18T03:11:51.369Z,11.60
2023-03-18T03:14:22.404Z,11.50
2023-03-18T03:16:51.884Z,11.40
2023-03-18T03:19:22.140Z,11.40
2023-03-18T03:21:50.299Z,11.30
2023-03-18T03:24:18.235Z,11.30
2023-03-18T03:26:46.223Z,11.30
2023-03-18T03:29:14.560Z,11.30
2023-03-18T03:31:42.393Z,11.20
2023-03-18T03:34:12.144Z,11.20
2023-03-18T03:36:40.077Z,11.20
2023-03-18T03:39:08.695Z,11.10
2023-03-18T03:41:38.394Z,11.10
2023-03-18T03:44:06.652Z,11.10
2023-03-18T03:46:35.620Z,11.10
2023-03-18T03:49:03.983Z,11.00
2023-03-18T03:51:33.598Z,11.00
2023-03-18T03:54:01.907Z,11.00
2023-03-18T03:56:31.549Z,11.00
2023-03-18T03:59:00.237Z,11.00
2023-03-18T04:01:28.307Z,11.00
2023-03-18T04:03:56.646Z,11.00
2023-03-18T04:06:24.617Z,11.00
2023-03-18T04:08:54.235Z,11.00
2023-03-18T04:11:22.639Z,11.00
2023-03-18T04:13:50.555Z,11.00
2023-03-18T04:16:18.650Z,11.00
2023-03-18T04:18:46.758Z,11.00
2023-03-18T04:21:14.845Z,11.00
2023-03-18T04:23:42.816Z,11.00
2023-03-18T04:26:13.273Z,11.00
2023-03-18T04:28:41.423Z,11.00
2023-03-18T04:31:09.240Z,11.00
2023-03-18T04:33:37.781Z,11.00
2023-03-18T04:36:06.299Z,11.00
2023-03-18T04:38:34.315Z,11.00
2023-03-18T04:41:02.142Z,11.00
2023-03-18T04:43:31.507Z,11.10
2023-03-18T04:45:59.371Z,11.00
2023-03-18T04:48:27.417Z,11.10
2023-03-18T04:50:55.483Z,11.10
2023-03-18T04:53:23.753Z,11.10
2023-03-18T04:55:51.672Z,11.10
2023-03-18T04:58:19.464Z,11.10
2023-03-18T05:00:48.629Z,11.10
2023-03-18T05:03:16.738Z,11.10
2023-03-18T05:05:45.036Z,11.10
2023-03-18T05:08:13.091Z,11.10
2023-03-18T05:10:41.307Z,11.10
2023-03-18T05:13:09.385Z,11.10
2023-03-18T05:15:37.481Z,11.10
2023-03-18T05:18:06.706Z,11.10
2023-03-18T05:20:34.448Z,11.10
2023-03-18T05:23:03.117Z,11.10
2023-03-18T05:25:31.967Z,11.10
2023-03-18T05:27:59.873Z,11.10
2023-03-18T05:30:27.770Z,11.10
2023-03-18T05:32:56.021Z,11.10
2023-03-18T05:35:26.004Z,11.10
2023-03-18T05:37:53.772Z,11.10
2023-03-18T05:40:21.778Z,11.10
2023-03-18T05:42:56.367Z,11.10
2023-03-18T05:45:24.667Z,11.10
2023-03-18T05:47:53.062Z,11.10
2023-03-18T05:50:30.973Z,11.10
2023-03-18T05:53:00.644Z,11.10
2023-03-18T05:55:29.440Z,11.10
2023-03-18T05:57:57.825Z,11.10
2023-03-18T06:00:25.886Z,11.10
2023-03-18T06:02:53.979Z,11.20
2023-03-18T06:05:23.110Z,11.10
2023-03-18T06:07:52.594Z,11.20
2023-03-18T06:10:20.732Z,11.20
2023-03-18T06:12:49.462Z,11.20
2023-03-18T06:15:17.611Z,11.20
2023-03-18T06:17:47.549Z,11.20
2023-03-18T06:20:18.589Z,11.20
2023-03-18T06:22:49.452Z,11.20
2023-03-18T06:25:20.918Z,11.20
2023-03-18T06:27:49.042Z,11.20
2023-03-18T06:30:17.453Z,11.20
2023-03-18T06:32:45.634Z,11.20
2023-03-18T06:35:14.742Z,11.30
2023-03-18T06:37:43.342Z,11.30
2023-03-18T06:40:13.255Z,11.30
2023-03-18T06:42:43.077Z,11.30
2023-03-18T06:45:11.837Z,11.30
2023-03-18T06:47:40.919Z,11.30
2023-03-18T06:50:09.461Z,11.40
2023-03-18T06:52:38.342Z,11.40
2023-03-18T06:55:07.618Z,11.40
2023-03-18T06:57:35.430Z,11.50
2023-03-18T07:00:05.620Z,11.50
2023-03-18T07:02:33.526Z,11.50
2023-03-18T07:05:02.100Z,11.60
2023-03-18T07:07:30.182Z,11.60
2023-03-18T07:09:58.490Z,11.60
2023-03-18T07:12:26.658Z,11.60
2023-03-18T07:14:54.479Z,11.70
2023-03-18T07:17:24.439Z,11.60
2023-03-18T07:19:52.712Z,11.70
2023-03-18T07:22:21.215Z,11.70
2023-03-18T07:24:49.440Z,11.70
2023-03-18T07:27:17.618Z,11.80
2023-03-18T07:29:45.538Z,11.80
2023-03-18T07:32:13.406Z,11.90
2023-03-18T07:34:42.521Z,11.90
2023-03-18T07:37:10.648Z,11.90
2023-03-18T07:39:38.827Z,11.90
2023-03-18T07:42:06.906Z,11.90
2023-03-18T07:44:34.874Z,11.90
2023-03-18T07:47:03.611Z,11.90
2023-03-18T07:49:32.427Z,11.90
2023-03-18T07:52:02.113Z,11.90
2023-03-18T07:54:29.857Z,11.90
2023-03-18T07:56:58.134Z,11.90
2023-03-18T07:59:26.385Z,11.90
2023-03-18T08:01:54.318Z,11.90
2023-03-18T08:04:22.631Z,11.90
2023-03-18T08:06:50.661Z,12.00
2023-03-18T08:09:19.950Z,12.00
2023-03-18T08:11:47.917Z,12.00
2023-03-18T08:14:15.730Z,11.90
2023-03-18T08:16:43.982Z,12.00
2023-03-18T08:19:12.585Z,12.00
2023-03-18T08:21:41.768Z,12.00
2023-03-18T08:24:09.869Z,12.00
2023-03-18T08:26:40.115Z,12.00
2023-03-18T08:29:08.176Z,12.00
2023-03-18T08:31:36.819Z,12.00
2023-03-18T08:34:04.632Z,12.00
2023-03-18T08:36:32.670Z,12.10
2023-03-18T08:39:00.773Z,12.10
2023-03-18T08:41:28.641Z,12.20
2023-03-18T08:43:59.093Z,12.20
2023-03-18T08:46:27.178Z,12.20
2023-03-18T08:48:55.230Z,12.30
2023-03-18T08:51:23.247Z,12.30
2023-03-18T08:53:51.028Z,12.30
2023-03-18T08:56:20.548Z,12.40
2023-03-18T08:58:49.217Z,12.40
2023-03-18T09:01:22.685Z,12.40
2023-03-18T09:03:51.014Z,12.30
2023-03-18T09:06:19.386Z,12.30
2023-03-18T09:08:47.219Z,12.20
2023-03-18T09:11:16.125Z,12.20
2023-03-18T09:13:44.082Z,12.10
2023-03-18T09:16:12.553Z,12.10
2023-03-18T09:18:44.283Z,12.10
2023-03-18T09:21:13.902Z,12.00
2023-03-18T09:23:43.186Z,12.00
2023-03-18T09:26:13.400Z,12.00
2023-03-18T09:28:41.674Z,12.00
2023-03-18T09:31:09.582Z,12.00
2023-03-18T09:33:37.733Z,11.90
2023-03-18T09:36:07.736Z,12.00
2023-03-18T09:38:35.722Z,12.00
2023-03-18T09:41:09.060Z,12.00
2023-03-18T09:43:58.009Z,12.00
2023-03-18T09:46:34.625Z,12.10
2023-03-18T09:49:15.932Z,12.20
2023-03-18T09:51:54.224Z,12.30
2023-03-18T09:54:30.679Z,12.40
2023-03-18T09:56:59.483Z,12.50
2023-03-18T09:59:41.472Z,12.50
2023-03-18T10:02:20.558Z,12.60
2023-03-18T10:04:53.394Z,12.70
2023-03-18T10:07:29.764Z,12.80
2023-03-18T10:10:02.783Z,12.90
2023-03-18T10:12:33.967Z,13.00
2023-03-18T10:15:16.607Z,13.10
2023-03-18T10:17:47.088Z,13.20
2023-03-18T10:20:19.310Z,13.20
2023-03-18T10:23:18.185Z,13.30
2023-03-18T10:25:52.685Z,13.30
2023-03-18T10:28:47.331Z,13.40
2023-03-18T10:31:25.511Z,13.50
2023-03-18T10:33:59.547Z,13.60
2023-03-18T10:36:35.561Z,13.60
2023-03-18T10:39:09.614Z,13.70
2023-03-18T10:41:40.984Z,13.70
2023-03-18T10:44:19.180Z,13.70
2023-03-18T10:47:05.498Z,13.90
2023-03-18T10:49:37.088Z,13.90
2023-03-18T10:52:35.875Z,14.00
2023-03-18T10:55:23.348Z,14.10
2023-03-18T10:58:15.413Z,14.20
2023-03-18T11:01:22.778Z,14.30
2023-03-18T11:04:21.751Z,14.40
2023-03-18T11:06:53.176Z,14.50
2023-03-18T11:09:24.204Z,14.60
2023-03-18T11:12:02.282Z,14.70
2023-03-18T11:14:32.568Z,14.70
2023-03-18T11:17:03.508Z,14.80
2023-03-18T11:19:33.785Z,14.90
2023-03-18T11:22:05.502Z,15.00
2023-03-18T11:24:43.791Z,15.10
2023-03-18T11:27:36.520Z,15.10
2023-03-18T11:30:16.687Z,15.10
2023-03-18T11:32:58.431Z,15.10
2023-03-18T11:35:33.383Z,15.10
2023-03-18T11:38:04.979Z,15.20
2023-03-18T11:40:33.169Z,15.20
2023-03-18T11:43:13.980Z,15.30
2023-03-18T11:45:50.191Z,15.40
2023-03-18T11:48:25.032Z,15.40
2023-03-18T11:51:07.122Z,15.30
2023-03-18T11:53:47.654Z,15.30
2023-03-18T11:56:21.584Z,15.30
2023-03-18T11:59:02.287Z,15.40
2023-03-18T12:01:41.452Z,15.40
2023-03-18T12:09:30.354Z,15.60
2023-03-18T12:12:08.869Z,15.60
2023-03-18T12:14:44.773Z,15.80
2023-03-18T12:17:22.816Z,15.90
2023-03-18T12:20:19.522Z,16.00
2023-03-18T12:23:00.231Z,16.10
2023-03-18T12:25:52.282Z,16.20
2023-03-18T12:28:34.480Z,16.40
2023-03-18T12:31:14.105Z,16.50
2023-03-18T12:33:55.457Z,16.50
2023-03-18T12:36:39.908Z,16.50
2023-03-18T12:39:48.997Z,16.50
2023-03-18T12:42:34.311Z,16.50
2023-03-18T12:45:03.716Z,16.50
2023-03-18T12:47:37.485Z,16.50
2023-03-18T12:50:13.625Z,16.50
2023-03-18T12:52:45.698Z,16.50
2023-03-18T12:55:17.971Z,16.60
2023-03-18T12:57:49.278Z,16.60
2023-03-18T13:00:25.892Z,16.60
2023-03-18T13:03:00.733Z,16.60
2023-03-18T13:05:38.346Z,16.50
2023-03-18T13:08:29.679Z,16.40
2023-03-18T13:11:06.363Z,16.20
2023-03-18T13:13:39.308Z,16.10
2023-03-18T13:16:08.414Z,16.00
2023-03-18T13:18:43.210Z,16.00
2023-03-18T13:21:16.044Z,16.00
2023-03-18T13:24:06.817Z,16.10
2023-03-18T13:26:50.555Z,16.20
2023-03-18T13:29:27.220Z,16.40
2023-03-18T13:32:06.597Z,16.50
2023-03-18T13:35:04.632Z,16.50
2023-03-18T13:38:02.971Z,16.60
2023-03-18T13:41:08.535Z,16.70
2023-03-18T13:43:41.262Z,16.80
2023-03-18T13:46:19.949Z,16.90
2023-03-18T13:48:48.199Z,16.90
2023-03-18T13:51:40.878Z,17.00
2023-03-18T13:54:18.499Z,17.00
2023-03-18T13:56:50.467Z,17.10
2023-03-18T13:59:44.047Z,17.10
2023-03-18T14:02:35.427Z,17.10
2023-03-18T14:05:04.037Z,17.10
2023-03-18T14:07:33.130Z,17.10
2023-03-18T14:10:19.771Z,17.10
2023-03-18T14:12:49.033Z,17.10
2023-03-18T14:15:40.437Z,17.10
2023-03-18T14:18:27.646Z,17.10
2023-03-18T14:21:01.351Z,17.10
2023-03-18T14:23:44.301Z,17.10
2023-03-18T14:26:21.708Z,16.90
2023-03-18T14:28:54.456Z,16.90
2023-03-18T14:31:34.787Z,16.90
2023-03-18T14:34:24.713Z,17.10
2023-03-18T14:37:25.302Z,17.10
2023-03-18T14:39:57.117Z,17.10
2023-03-18T14:42:52.670Z,17.00
2023-03-18T14:45:25.805Z,17.00
2023-03-18T14:47:56.200Z,17.10
2023-03-18T14:50:32.897Z,17.00
2023-03-18T14:53:07.029Z,16.90
2023-03-18T14:55:39.362Z,16.70
2023-03-18T14:58:07.128Z,16.60
2023-03-18T15:00:37.391Z,16.50
2023-03-18T15:03:11.001Z,16.40
2023-03-18T15:05:41.114Z,16.30
2023-03-18T15:08:11.768Z,16.20
2023-03-18T15:10:41.652Z,16.10
2023-03-18T15:13:13.846Z,16.00
2023-03-18T15:15:42.623Z,15.90
2023-03-18T15:18:20.670Z,15.90
2023-03-18T15:20:55.744Z,15.90
2023-03-18T15:23:30.550Z,15.90
2023-03-18T15:25:59.703Z,15.90
2023-03-18T15:28:29.932Z,16.00
2023-03-18T15:30:59.682Z,16.00
2023-03-18T15:33:31.763Z,16.10
2023-03-18T15:36:06.228Z,16.20
2023-03-18T15:38:34.954Z,16.10
2023-03-18T15:41:06.477Z,16.20
2023-03-18T15:43:39.495Z,16.20
2023-03-18T15:46:14.655Z,16.10
2023-03-18T15:48:47.816Z,16.10
2023-03-18T15:51:29.884Z,16.10
2023-03-18T15:54:06.994Z,16.00
2023-03-18T15:56:36.570Z,15.90
2023-03-18T15:59:09.025Z,15.90
2023-03-18T16:01:37.243Z,15.90
2023-03-18T16:04:08.546Z,15.90
2023-03-18T16:06:38.418Z,15.90
2023-03-18T16:09:15.748Z,15.80
2023-03-18T16:11:45.715Z,15.80
2023-03-18T16:14:17.443Z,15.80
2023-03-18T16:16:48.658Z,15.70
2023-03-18T16:19:19.871Z,15.70
2023-03-18T16:21:47.911Z,15.60
2023-03-18T16:24:16.903Z,15.60
2023-03-18T16:26:46.903Z,15.50
2023-03-18T16:29:16.961Z,15.50
2023-03-18T16:31:45.350Z,15.40
2023-03-18T16:34:16.953Z,15.40
2023-03-18T16:36:45.026Z,15.40
2023-03-18T16:39:16.255Z,15.30
2023-03-18T16:41:44.615Z,15.20
2023-03-18T16:44:16.732Z,15.20
2023-03-18T16:46:47.215Z,15.10
2023-03-18T16:49:17.027Z,15.10
2023-03-18T16:51:46.713Z,15.00
2023-03-18T16:54:20.961Z,14.90
2023-03-18T16:56:51.228Z,14.90
2023-03-18T16:59:22.213Z,14.80
2023-03-18T17:01:50.532Z,14.70
2023-03-18T17:04:22.840Z,14.60
2023-03-18T17:06:52.122Z,14.50
2023-03-18T17:09:20.433Z,14.50
2023-03-18T17:11:50.139Z,14.40
2023-03-18T17:14:32.654Z,14.20
2023-03-18T17:17:03.345Z,14.20
2023-03-18T17:19:31.132Z,14.10
2023-03-18T17:21:59.308Z,14.00
2023-03-18T17:24:27.158Z,14.00
2023-03-18T17:26:55.306Z,13.90
2023-03-18T17:29:26.181Z,13.80
2023-03-18T17:31:54.876Z,13.80
2023-03-18T17:34:23.773Z,13.70
2023-03-18T17:36:51.522Z,13.70
2023-03-18T17:39:19.393Z,13.60
2023-03-18T17:41:48.456Z,13.50
2023-03-18T17:44:27.739Z,13.50
2023-03-18T17:46:58.633Z,13.50
2023-03-18T17:49:28.047Z,13.40
2023-03-18T17:51:57.046Z,13.40
2023-03-18T17:54:29.589Z,13.40
2023-03-18T17:56:58.094Z,13.30
2023-03-18T17:59:29.177Z,13.30
2023-03-18T18:01:57.283Z,13.20
2023-03-18T18:04:27.357Z,13.20
2023-03-18T18:06:55.337Z,13.20
2023-03-18T18:09:23.456Z,13.10
2023-03-18T18:11:51.287Z,13.10
2023-03-18T18:14:22.479Z,13.10
2023-03-18T18:16:53.503Z,13.10
2023-03-18T18:19:22.702Z,13.00
2023-03-18T18:21:51.216Z,13.00
2023-03-18T18:24:23.320Z,13.00
2023-03-18T18:26:52.209Z,12.90
2023-03-18T18:29:22.279Z,12.90
2023-03-18T18:31:52.221Z,12.80
2023-03-18T18:34:21.174Z,12.80
2023-03-18T18:36:49.670Z,12.80
2023-03-18T18:39:18.027Z,12.70
2023-03-18T18:41:46.509Z,12.70
2023-03-18T18:44:14.799Z,12.70
2023-03-18T18:46:42.728Z,12.60
2023-03-18T18:49:21.861Z,12.60
2023-03-18T18:51:49.878Z,12.60
2023-03-18T18:54:17.704Z,12.60
2023-03-18T18:56:45.927Z,12.50
2023-03-18T18:59:23.410Z,12.50
2023-03-18T19:01:51.908Z,12.40
2023-03-18T19:04:22.877Z,12.40
2023-03-18T19:06:52.251Z,12.40
2023-03-18T19:09:23.461Z,12.30
2023-03-18T19:11:52.443Z,12.30
2023-03-18T19:14:24.353Z,12.30
2023-03-18T19:16:53.687Z,12.20
2023-03-18T19:19:26.902Z,12.10
2023-03-18T19:21:54.699Z,12.10
2023-03-18T19:24:27.760Z,12.10
2023-03-18T19:26:57.388Z,12.10
2023-03-18T19:29:25.850Z,12.10
2023-03-18T19:31:54.479Z,12.00
2023-03-18T19:34:24.219Z,11.90
2023-03-18T19:36:55.926Z,11.90
2023-03-18T19:39:24.847Z,11.90
2023-03-18T19:41:52.709Z,11.80
2023-03-18T19:44:22.215Z,11.80
2023-03-18T19:46:52.355Z,11.70
2023-03-18T19:49:25.191Z,11.70
2023-03-18T19:51:53.351Z,11.60
2023-03-18T19:54:28.209Z,11.60
2023-03-18T19:56:57.251Z,11.60
2023-03-18T19:59:33.501Z,11.50
2023-03-18T20:02:05.467Z,11.50
2023-03-18T20:04:34.882Z,11.40
2023-03-18T20:07:03.803Z,11.50
2023-03-18T20:09:31.736Z,11.50
2023-03-18T20:12:04.651Z,11.50
2023-03-18T20:14:37.822Z,11.50
2023-03-18T20:17:29.193Z,11.50
2023-03-18T20:19:58.552Z,11.50
2023-03-18T20:22:29.113Z,11.50
2023-03-18T20:24:57.008Z,11.50
2023-03-18T20:27:25.104Z,11.60
2023-03-18T20:29:53.165Z,11.60
2023-03-18T20:32:21.076Z,11.60
2023-03-18T20:34:48.912Z,11.70
2023-03-18T20:37:26.016Z,11.70
2023-03-18T20:39:54.423Z,11.70
2023-03-18T20:42:22.808Z,11.80
2023-03-18T20:44:50.661Z,11.70
2023-03-18T20:47:18.457Z,11.80
2023-03-18T20:49:46.421Z,11.80
2023-03-18T20:52:24.489Z,11.80
2023-03-18T20:54:52.405Z,11.80
2023-03-18T20:57:20.255Z,11.80
2023-03-18T20:59:48.523Z,11.90
2023-03-18T21:02:29.166Z,11.90
2023-03-18T21:04:57.709Z,11.90
2023-03-18T21:07:27.426Z,11.80
2023-03-18T21:09:55.443Z,11.90
2023-03-18T21:12:23.652Z,11.90
2023-03-18T21:14:51.828Z,11.90
2023-03-18T21:17:20.612Z,11.90
2023-03-18T21:19:52.381Z,11.90
2023-03-18T21:22:22.967Z,12.00
2023-03-18T21:24:52.250Z,12.00
2023-03-18T21:27:21.113Z,12.00
2023-03-18T21:29:49.453Z,12.00
2023-03-18T21:32:23.719Z,12.00
2023-03-18T21:34:52.570Z,12.00
2023-03-18T21:37:22.350Z,12.10
2023-03-18T21:39:50.611Z,12.10
2023-03-18T21:42:23.806Z,12.20
2023-03-18T21:44:51.710Z,12.20
2023-03-18T21:47:21.048Z,12.20
2023-03-18T21:49:49.532Z,12.30
2023-03-18T21:52:20.217Z,12.30
2023-03-18T21:54:48.244Z,12.30
2023-03-18T21:57:17.984Z,12.30
2023-03-18T21:59:47.371Z,12.40
2023-03-18T22:02:23.217Z,12.40
2023-03-18T22:04:51.132Z,12.40
2023-03-18T22:07:20.695Z,12.50
2023-03-18T22:09:50.903Z,12.50
2023-03-18T22:12:23.891Z,12.50
2023-03-18T22:14:54.008Z,12.40
2023-03-18T22:17:26.255Z,12.40
2023-03-18T22:19:57.809Z,12.40
2023-03-18T22:22:28.025Z,12.30
2023-03-18T22:24:56.713Z,12.30
2023-03-18T22:27:26.457Z,12.30
2023-03-18T22:29:57.515Z,12.20
2023-03-18T22:32:36.251Z,12.20
2023-03-18T22:35:05.495Z,12.20
2023-03-18T22:37:33.386Z,12.20
2023-03-18T22:40:02.146Z,12.20
2023-03-18T22:42:29.986Z,12.10
2023-03-18T22:44:59.058Z,12.20
2023-03-18T22:47:27.694Z,12.20
2023-03-18T22:49:55.461Z,12.20
2023-03-18T22:52:26.077Z,12.20
2023-03-18T22:54:57.412Z,12.20
2023-03-18T22:57:27.103Z,12.20
2023-03-18T22:59:55.498Z,12.20
2023-03-18T23:02:27.255Z,12.20
2023-03-18T23:04:59.163Z,12.30
2023-03-18T23:07:29.703Z,12.20
2023-03-18T23:10:04.781Z,12.20
2023-03-18T23:12:34.908Z,12.20
2023-03-18T23:15:03.898Z,12.10
2023-03-18T23:17:33.670Z,12.00
2023-03-18T23:20:01.840Z,12.00
2023-03-18T23:22:34.015Z,11.90
2023-03-18T23:25:03.983Z,11.90
2023-03-18T23:27:31.802Z,11.90
2023-03-18T23:29:59.707Z,11.80
2023-03-18T23:32:29.053Z,11.80
2023-03-18T23:34:58.241Z,11.80
2023-03-18T23:37:26.324Z,11.80
2023-03-18T23:39:54.057Z,11.80
2023-03-18T23:42:22.548Z,11.80
2023-03-18T23:44:52.331Z,11.70
2023-03-18T23:47:20.231Z,11.70
2023-03-18T23:49:49.739Z,11.70
2023-03-18T23:52:18.856Z,11.60
2023-03-18T23:54:50.395Z,11.60
2023-03-18T23:57:18.295Z,11.50
2023-03-18T23:59:46.235Z,11.50
